Time;durP1;ratioP1;P1;durP2;ratioP2;P2;SDS_P1;SDS_P2;PMS_P1;PMS_P2;Temp;Humidity;BMP_temperature;BMP_pressure;BME280_temperature;BME280_humidity;BME280_pressure;Samples;Min_cycle;Max_cycle;Signal;HPM_P1;HPM_P2
2022/11/12 00:02:15;;;;;;;;;;;5.60;99.90;;;;;;5049097;28;20005;-67
2022/11/12 00:04:40;;;;;;;;;;;5.60;99.90;;;;;;5044950;28;19925;-67
2022/11/12 00:07:06;;;;;;;;;;;5.60;99.90;;;;;;5039921;28;19921;-68
2022/11/12 00:09:31;;;;;;;;;;;5.60;99.90;;;;;;5047924;28;20285;-68
2022/11/12 00:11:57;;;;;;;;;;;5.60;99.90;;;;;;5045738;28;20194;-68
2022/11/12 00:14:23;;;;;;;;;;;5.50;99.90;;;;;;5043055;28;19927;-68
2022/11/12 00:16:48;;;;;;;;;;;5.50;99.90;;;;;;5042228;28;19932;-68
2022/11/12 00:19:14;;;;;;;;;;;5.50;99.90;;;;;;5044073;28;19928;-68
2022/11/12 00:21:39;;;;;;;;;;;5.40;99.90;;;;;;5045895;28;20670;-68
2022/11/12 00:24:05;;;;;;;;;;;5.40;99.90;;;;;;5047965;28;19920;-68
2022/11/12 00:26:31;;;;;;;;;;;5.40;99.90;;;;;;5049745;28;19921;-68
2022/11/12 00:28:56;;;;;;;;;;;5.50;99.90;;;;;;5037987;28;19943;-68
2022/11/12 00:31:22;;;;;;;;;;;5.50;99.90;;;;;;5043545;28;19990;-68
2022/11/12 00:33:47;;;;;;;;;;;5.90;99.90;;;;;;5029900;28;19928;-68
2022/11/12 00:36:13;;;;;;;;;;;5.60;99.90;;;;;;5045643;28;20491;-68
2022/11/12 00:38:39;;;;;;;;;;;5.60;99.90;;;;;;5044523;28;20500;-68
2022/11/12 00:41:05;;;;;;;;;;;5.60;99.90;;;;;;5045036;28;19920;-68
2022/11/12 00:43:30;;;;;;;;;;;5.70;99.90;;;;;;5040956;28;19928;-68
2022/11/12 00:45:56;;;;;;;;;;;5.80;99.90;;;;;;5044649;28;20301;-68
2022/11/12 00:48:21;;;;;;;;;;;5.80;99.90;;;;;;5041733;28;20267;-68
2022/11/12 00:50:47;;;;;;;;;;;5.80;99.90;;;;;;5024307;28;19925;-68
2022/11/12 00:53:12;;;;;;;;;;;5.90;99.90;;;;;;5045590;28;19929;-68
2022/11/12 00:55:38;;;;;;;;;;;5.80;99.90;;;;;;5046021;28;20275;-68
2022/11/12 00:58:04;;;;;;;;;;;5.80;99.90;;;;;;5042978;28;19921;-68
2022/11/12 01:00:29;;;;;;;;;;;5.90;99.90;;;;;;5043848;28;19924;-68
2022/11/12 01:02:55;;;;;;;;;;;5.90;99.90;;;;;;5048070;28;20374;-68
2022/11/12 01:05:21;;;;;;;;;;;5.90;99.90;;;;;;5045066;28;19983;-68
2022/11/12 01:07:47;;;;;;;;;;;6.00;99.90;;;;;;5041357;28;19925;-68
2022/11/12 01:10:13;;;;;;;;;;;6.00;99.90;;;;;;5044747;28;20042;-68
2022/11/12 01:12:38;;;;;;;;;;;6.10;99.90;;;;;;5043117;28;20027;-68
2022/11/12 01:15:05;;;;;;;;;;;6.00;99.90;;;;;;5036612;28;19933;-68
2022/11/12 01:17:31;;;;;;;;;;;6.10;99.90;;;;;;5042669;28;19936;-68
2022/11/12 01:19:56;;;;;;;;;;;6.10;99.90;;;;;;5041608;28;19920;-68
2022/11/12 01:22:22;;;;;;;;;;;6.20;99.90;;;;;;5041765;28;19920;-68
2022/11/12 01:24:47;;;;;;;;;;;6.30;99.90;;;;;;5039625;28;19921;-68
2022/11/12 01:27:13;;;;;;;;;;;6.20;99.90;;;;;;5041950;28;20394;-69
2022/11/12 01:29:39;;;;;;;;;;;6.30;99.90;;;;;;5041876;28;19924;-68
2022/11/12 01:32:05;;;;;;;;;;;6.20;99.90;;;;;;5042454;28;20404;-68
2022/11/12 01:34:31;;;;;;;;;;;6.20;99.90;;;;;;5040967;28;19928;-68
2022/11/12 01:36:57;;;;;;;;;;;6.20;99.90;;;;;;5037091;28;20397;-68
2022/11/12 01:39:22;;;;;;;;;;;6.20;99.90;;;;;;5040471;28;19967;-68
2022/11/12 01:41:49;;;;;;;;;;;6.20;99.90;;;;;;5044510;28;19982;-68
2022/11/12 01:44:28;;;;;;;;;;;6.10;99.90;;;;;;5022952;28;19928;-68
2022/11/12 01:46:56;;;;;;;;;;;6.10;99.90;;;;;;5027674;28;20588;-67
2022/11/12 01:49:43;;;;;;;;;;;6.00;99.90;;;;;;5040511;28;19975;-67
2022/11/12 01:52:15;;;;;;;;;;;6.00;99.90;;;;;;5043237;28;20435;-67
2022/11/12 01:54:42;;;;;;;;;;;6.00;99.90;;;;;;5044983;28;20027;-67
2022/11/12 01:57:08;;;;;;;;;;;6.00;99.90;;;;;;5044282;28;20374;-68
2022/11/12 01:59:37;;;;;;;;;;;6.10;99.90;;;;;;5041947;28;19921;-68
2022/11/12 02:02:03;;;;;;;;;;;6.10;99.90;;;;;;5044126;28;19924;-67
2022/11/12 02:04:29;;;;;;;;;;;6.10;99.90;;;;;;5037543;28;19927;-67
2022/11/12 02:06:56;;;;;;;;;;;6.00;99.90;;;;;;5039429;28;20394;-68
2022/11/12 02:09:22;;;;;;;;;;;6.00;99.90;;;;;;5040941;28;19921;-67
2022/11/12 02:11:48;;;;;;;;;;;6.00;99.90;;;;;;5004802;28;19935;-67
2022/11/12 02:14:13;;;;;;;;;;;6.00;99.90;;;;;;5026060;28;19928;-67
2022/11/12 02:16:40;;;;;;;;;;;6.10;99.90;;;;;;5042949;28;19925;-67
2022/11/12 02:19:07;;;;;;;;;;;6.10;99.90;;;;;;5038698;28;19927;-67
2022/11/12 02:21:33;;;;;;;;;;;6.10;99.90;;;;;;5034526;28;19956;-67
2022/11/12 02:24:24;;;;;;;;;;;6.20;99.90;;;;;;5042418;28;19974;-67
2022/11/12 02:26:52;;;;;;;;;;;6.20;99.90;;;;;;5040798;28;19925;-68
2022/11/12 02:29:18;;;;;;;;;;;6.20;99.90;;;;;;5042399;28;19928;-67
2022/11/12 02:31:43;;;;;;;;;;;6.20;99.90;;;;;;5041917;28;19920;-68
2022/11/12 02:34:09;;;;;;;;;;;6.20;99.90;;;;;;5040717;28;19984;-68
2022/11/12 02:36:35;;;;;;;;;;;6.20;99.90;;;;;;5044532;28;20386;-67
2022/11/12 02:39:01;;;;;;;;;;;6.10;99.90;;;;;;5038943;28;19971;-67
2022/11/12 02:41:26;;;;;;;;;;;6.00;99.90;;;;;;5042504;28;19932;-67
2022/11/12 02:43:52;;;;;;;;;;;5.90;99.90;;;;;;5041958;28;19920;-67
2022/11/12 02:46:18;;;;;;;;;;;5.90;99.90;;;;;;5042287;28;20321;-67
2022/11/12 02:48:43;;;;;;;;;;;5.80;99.90;;;;;;5043333;28;19935;-67
2022/11/12 02:51:09;;;;;;;;;;;5.80;99.90;;;;;;5026590;28;19925;-68
2022/11/12 02:53:35;;;;;;;;;;;5.80;99.90;;;;;;5038241;28;20021;-67
2022/11/12 02:56:01;;;;;;;;;;;5.80;99.90;;;;;;5043449;28;19936;-68
2022/11/12 02:58:27;;;;;;;;;;;5.70;99.90;;;;;;5042146;28;19932;-67
2022/11/12 03:00:53;;;;;;;;;;;5.70;99.90;;;;;;5043260;28;20477;-67
2022/11/12 03:03:18;;;;;;;;;;;5.70;99.90;;;;;;5039745;28;20014;-68
2022/11/12 03:05:44;;;;;;;;;;;5.70;99.90;;;;;;5040238;28;19967;-67
2022/11/12 03:08:10;;;;;;;;;;;5.70;99.90;;;;;;5043765;28;20294;-68
2022/11/12 03:10:37;;;;;;;;;;;5.70;99.90;;;;;;5041331;28;20002;-67
2022/11/12 03:13:02;;;;;;;;;;;5.60;99.90;;;;;;5042701;28;19929;-67
2022/11/12 03:15:28;;;;;;;;;;;5.60;99.90;;;;;;5042817;28;19929;-67
2022/11/12 03:17:56;;;;;;;;;;;5.50;99.90;;;;;;5023658;28;20383;-67
2022/11/12 03:20:21;;;;;;;;;;;5.40;99.90;;;;;;5023327;28;19921;-68
2022/11/12 03:22:54;;;;;;;;;;;5.40;99.90;;;;;;5005107;28;20409;-68
2022/11/12 03:25:20;;;;;;;;;;;5.30;99.90;;;;;;4987222;28;19925;-68
2022/11/12 03:27:45;;;;;;;;;;;5.20;99.90;;;;;;4986898;28;19927;-68
2022/11/12 03:30:11;;;;;;;;;;;5.00;99.90;;;;;;4999917;28;20030;-67
2022/11/12 03:32:37;;;;;;;;;;;4.90;99.90;;;;;;4989039;28;19940;-67
2022/11/12 03:35:02;;;;;;;;;;;4.80;99.90;;;;;;5021978;28;19944;-67
2022/11/12 03:37:28;;;;;;;;;;;4.70;99.90;;;;;;5004993;28;19921;-68
2022/11/12 03:39:53;;;;;;;;;;;4.60;99.90;;;;;;5002734;28;20050;-68
2022/11/12 03:42:19;;;;;;;;;;;4.50;99.90;;;;;;5003832;28;19929;-67
2022/11/12 03:44:45;;;;;;;;;;;4.40;99.90;;;;;;4989644;28;20054;-67
2022/11/12 03:47:10;;;;;;;;;;;4.40;99.90;;;;;;5004376;28;19925;-67
2022/11/12 03:49:36;;;;;;;;;;;4.40;99.90;;;;;;5019770;28;20571;-67
2022/11/12 03:52:01;;;;;;;;;;;4.30;99.90;;;;;;5018326;28;19929;-67
2022/11/12 03:54:27;;;;;;;;;;;4.30;99.90;;;;;;5003170;28;20273;-67
2022/11/12 03:56:53;;;;;;;;;;;4.30;99.90;;;;;;5017510;28;20382;-67
2022/11/12 03:59:18;;;;;;;;;;;4.20;99.90;;;;;;5021457;28;19929;-68
2022/11/12 04:01:44;;;;;;;;;;;4.10;99.90;;;;;;4986225;28;19929;-68
2022/11/12 04:04:10;;;;;;;;;;;4.10;99.90;;;;;;4983239;28;20000;-68
2022/11/12 04:09:22;;;;;;;;;;;4.10;99.90;;;;;;5020764;28;20390;-68
2022/11/12 04:11:48;;;;;;;;;;;4.00;99.90;;;;;;5019584;28;19979;-68
2022/11/12 04:14:13;;;;;;;;;;;4.00;99.90;;;;;;5003987;28;19972;-68
2022/11/12 04:22:08;;;;;;;;;;;4.00;99.90;;;;;;5039414;28;19921;-68
2022/11/12 04:27:23;;;;;;;;;;;3.90;99.90;;;;;;5039771;28;20492;-68
2022/11/12 04:32:37;;;;;;;;;;;3.90;99.90;;;;;;5040013;28;19928;-68
2022/11/12 04:35:04;;;;;;;;;;;3.90;99.90;;;;;;5037299;28;19979;-68
2022/11/12 04:37:43;;;;;;;;;;;3.90;99.90;;;;;;5040636;28;20081;-68
2022/11/12 04:45:40;;;;;;;;;;;3.80;99.90;;;;;;5041004;28;20419;-68
2022/11/12 04:48:05;;;;;;;;;;;3.80;99.90;;;;;;5022754;28;20239;-68
2022/11/12 04:50:31;;;;;;;;;;;3.80;99.90;;;;;;5038355;28;20383;-68
2022/11/12 04:52:57;;;;;;;;;;;3.80;99.90;;;;;;5039335;28;19921;-68
2022/11/12 04:55:22;;;;;;;;;;;3.80;99.90;;;;;;5040015;28;21291;-68
2022/11/12 04:57:48;;;;;;;;;;;3.70;99.90;;;;;;5022888;28;19970;-68
2022/11/12 05:00:14;;;;;;;;;;;3.70;99.90;;;;;;5038980;28;20015;-68
2022/11/12 05:02:39;;;;;;;;;;;3.70;99.90;;;;;;5036977;28;20856;-68
2022/11/12 05:05:05;;;;;;;;;;;3.90;99.90;;;;;;5037601;28;19921;-68
2022/11/12 05:07:31;;;;;;;;;;;3.70;99.90;;;;;;5024814;28;19921;-68
2022/11/12 05:09:57;;;;;;;;;;;3.70;99.90;;;;;;5039833;28;19929;-68
2022/11/12 05:12:24;;;;;;;;;;;3.60;99.90;;;;;;5038976;28;19927;-68
2022/11/12 05:14:50;;;;;;;;;;;3.60;99.90;;;;;;5039466;28;20312;-68
2022/11/12 05:17:15;;;;;;;;;;;3.60;99.90;;;;;;5039663;28;19929;-68
2022/11/12 05:19:41;;;;;;;;;;;3.60;99.90;;;;;;5040142;28;19928;-68
2022/11/12 05:22:08;;;;;;;;;;;3.60;99.90;;;;;;5046051;28;19978;-68
2022/11/12 05:24:41;;;;;;;;;;;3.60;99.90;;;;;;5044298;28;19921;-68
2022/11/12 05:27:11;;;;;;;;;;;3.60;99.90;;;;;;5042674;28;19928;-68
2022/11/12 05:29:36;;;;;;;;;;;3.60;99.90;;;;;;5042183;28;19925;-68
2022/11/12 05:32:02;;;;;;;;;;;3.60;99.90;;;;;;5025485;28;19928;-68
2022/11/12 05:34:28;;;;;;;;;;;3.60;99.90;;;;;;5040796;28;20286;-68
2022/11/12 05:36:54;;;;;;;;;;;3.50;99.90;;;;;;5046177;28;19925;-68
2022/11/12 05:39:20;;;;;;;;;;;3.50;99.90;;;;;;5043215;28;19959;-68
2022/11/12 05:41:48;;;;;;;;;;;3.40;99.90;;;;;;5044420;28;20132;-68
2022/11/12 05:44:14;;;;;;;;;;;3.40;99.90;;;;;;5044183;28;19921;-68
2022/11/12 05:46:40;;;;;;;;;;;3.40;99.90;;;;;;5043097;28;19920;-68
2022/11/12 05:49:05;;;;;;;;;;;3.30;99.90;;;;;;5042080;28;19932;-68
2022/11/12 05:51:31;;;;;;;;;;;3.30;99.90;;;;;;5039635;28;19921;-68
2022/11/12 05:53:57;;;;;;;;;;;3.30;99.90;;;;;;5043012;28;19928;-68
2022/11/12 05:56:22;;;;;;;;;;;3.30;99.90;;;;;;5041681;28;19925;-68
2022/11/12 05:58:48;;;;;;;;;;;3.30;99.90;;;;;;5042440;28;19929;-68
2022/11/12 06:01:13;;;;;;;;;;;3.30;99.90;;;;;;5038728;28;20335;-68
2022/11/12 06:03:42;;;;;;;;;;;3.20;99.90;;;;;;5041567;28;20413;-68
2022/11/12 06:06:07;;;;;;;;;;;3.20;99.90;;;;;;5027501;28;19924;-68
2022/11/12 06:08:33;;;;;;;;;;;3.10;99.90;;;;;;5041904;28;19970;-68
2022/11/12 06:10:59;;;;;;;;;;;3.10;99.90;;;;;;5040795;28;19928;-68
2022/11/12 06:13:25;;;;;;;;;;;3.10;99.90;;;;;;5043690;28;19936;-68
2022/11/12 06:15:51;;;;;;;;;;;3.10;99.90;;;;;;5040973;28;19929;-68
2022/11/12 06:18:17;;;;;;;;;;;3.10;99.90;;;;;;5041946;28;19990;-68
2022/11/12 06:20:42;;;;;;;;;;;3.00;99.90;;;;;;5027062;28;19920;-68
2022/11/12 06:23:08;;;;;;;;;;;3.10;99.90;;;;;;5040941;28;19920;-68
2022/11/12 06:25:33;;;;;;;;;;;3.00;99.90;;;;;;5038741;28;20310;-68
2022/11/12 06:27:59;;;;;;;;;;;3.00;99.90;;;;;;5043114;28;19933;-68
2022/11/12 06:30:28;;;;;;;;;;;3.00;99.90;;;;;;5039198;28;19951;-68
2022/11/12 06:32:54;;;;;;;;;;;2.90;99.90;;;;;;5042966;28;20326;-69
2022/11/12 06:35:26;;;;;;;;;;;2.80;99.90;;;;;;5040633;28;19924;-68
2022/11/12 06:37:51;;;;;;;;;;;2.70;99.90;;;;;;5043412;28;19932;-68
2022/11/12 06:40:20;;;;;;;;;;;2.80;99.90;;;;;;5043699;28;19931;-68
2022/11/12 06:42:45;;;;;;;;;;;2.50;99.90;;;;;;5036551;28;19925;-68
2022/11/12 06:45:11;;;;;;;;;;;2.70;99.90;;;;;;5039427;28;19975;-68
2022/11/12 06:47:37;;;;;;;;;;;2.50;99.90;;;;;;5037252;28;19972;-69
2022/11/12 06:50:03;;;;;;;;;;;2.50;99.90;;;;;;5040292;28;19928;-69
2022/11/12 06:52:28;;;;;;;;;;;2.50;99.90;;;;;;5037757;28;19936;-69
2022/11/12 06:54:54;;;;;;;;;;;2.50;99.90;;;;;;5041492;28;19939;-69
2022/11/12 06:57:20;;;;;;;;;;;2.60;99.90;;;;;;5039310;28;20678;-68
2022/11/12 06:59:45;;;;;;;;;;;2.60;99.90;;;;;;5040901;28;20014;-69
2022/11/12 07:02:12;;;;;;;;;;;2.60;99.90;;;;;;5036739;28;19955;-69
2022/11/12 07:04:38;;;;;;;;;;;2.60;99.90;;;;;;5042731;28;19927;-69
2022/11/12 07:07:03;;;;;;;;;;;2.70;99.90;;;;;;5037748;28;19920;-68
2022/11/12 07:09:29;;;;;;;;;;;2.60;99.90;;;;;;5038494;28;19940;-68
2022/11/12 07:11:55;;;;;;;;;;;2.70;99.90;;;;;;5038537;28;19932;-68
2022/11/12 07:14:20;;;;;;;;;;;2.60;99.90;;;;;;5040221;28;20445;-68
2022/11/12 07:16:46;;;;;;;;;;;2.60;99.90;;;;;;5018857;28;19925;-68
2022/11/12 07:19:11;;;;;;;;;;;2.60;99.90;;;;;;5043737;28;19921;-68
2022/11/12 07:21:37;;;;;;;;;;;2.60;99.90;;;;;;5041512;28;19929;-68
2022/11/12 07:24:03;;;;;;;;;;;2.60;99.90;;;;;;5041124;28;19929;-68
2022/11/12 07:26:28;;;;;;;;;;;2.60;99.90;;;;;;5040949;28;19928;-68
2022/11/12 07:28:57;;;;;;;;;;;2.70;99.90;;;;;;5040351;28;19928;-68
2022/11/12 07:31:24;;;;;;;;;;;2.70;99.90;;;;;;5027356;28;20375;-68
2022/11/12 07:33:50;;;;;;;;;;;2.70;99.90;;;;;;5040773;28;19947;-68
2022/11/12 07:36:17;;;;;;;;;;;2.70;99.90;;;;;;5039612;28;19935;-68
2022/11/12 07:38:43;;;;;;;;;;;2.70;99.90;;;;;;5037754;28;19921;-68
2022/11/12 07:41:10;;;;;;;;;;;2.80;99.90;;;;;;5041342;28;19927;-68
2022/11/12 07:43:36;;;;;;;;;;;2.90;99.90;;;;;;5043149;28;20304;-68
2022/11/12 07:46:04;;;;;;;;;;;2.80;99.90;;;;;;5038633;28;19933;-68
2022/11/12 07:48:30;;;;;;;;;;;2.90;99.90;;;;;;5042139;28;20317;-68
2022/11/12 07:51:00;;;;;;;;;;;2.90;99.90;;;;;;5037501;28;19920;-68
2022/11/12 07:53:25;;;;;;;;;;;3.00;99.90;;;;;;5039249;28;20403;-68
2022/11/12 07:55:52;;;;;;;;;;;3.00;99.90;;;;;;5042076;28;19928;-68
2022/11/12 07:58:17;;;;;;;;;;;3.10;99.90;;;;;;5042168;28;20373;-68
2022/11/12 08:00:43;;;;;;;;;;;3.50;99.90;;;;;;5040338;28;19921;-68
2022/11/12 08:03:09;;;;;;;;;;;3.10;99.90;;;;;;5040442;28;21387;-68
2022/11/12 08:05:34;;;;;;;;;;;3.10;99.90;;;;;;5038241;28;19929;-68
2022/11/12 08:08:00;;;;;;;;;;;3.40;99.90;;;;;;5041665;28;19925;-69
2022/11/12 08:10:25;;;;;;;;;;;3.20;99.90;;;;;;5043689;28;19921;-68
2022/11/12 08:12:54;;;;;;;;;;;3.60;99.90;;;;;;5047952;28;19921;-68
2022/11/12 08:15:20;;;;;;;;;;;3.30;99.90;;;;;;5047749;28;19935;-68
2022/11/12 08:17:45;;;;;;;;;;;3.30;99.90;;;;;;5042956;28;20306;-68
2022/11/12 08:20:11;;;;;;;;;;;3.40;99.90;;;;;;5046208;28;19921;-68
2022/11/12 08:22:37;;;;;;;;;;;3.40;99.90;;;;;;5049705;28;19920;-68
2022/11/12 08:25:03;;;;;;;;;;;3.50;99.90;;;;;;5029204;28;19928;-68
2022/11/12 08:27:28;;;;;;;;;;;3.50;99.90;;;;;;5045701;28;19927;-68
2022/11/12 08:29:57;;;;;;;;;;;3.60;99.90;;;;;;5046422;28;19927;-68
2022/11/12 08:32:23;;;;;;;;;;;3.70;99.90;;;;;;5047757;28;19920;-68
2022/11/12 08:34:49;;;;;;;;;;;3.80;99.90;;;;;;5030308;28;19924;-68
2022/11/12 08:37:15;;;;;;;;;;;3.90;99.90;;;;;;5047398;28;19943;-68
2022/11/12 08:39:40;;;;;;;;;;;4.00;99.90;;;;;;5048764;28;19928;-68
2022/11/12 08:42:06;;;;;;;;;;;4.30;99.90;;;;;;5046864;28;19927;-68
2022/11/12 08:44:32;;;;;;;;;;;5.00;99.90;;;;;;5046059;28;19931;-68
2022/11/12 08:46:58;;;;;;;;;;;5.70;99.90;;;;;;5039787;28;19928;-68
2022/11/12 08:49:24;;;;;;;;;;;6.80;99.90;;;;;;5024928;28;19943;-69
2022/11/12 08:51:49;;;;;;;;;;;7.60;99.90;;;;;;5045486;28;20020;-68
2022/11/12 08:54:15;;;;;;;;;;;8.20;99.90;;;;;;5047597;28;19933;-68
2022/11/12 08:56:41;;;;;;;;;;;8.10;99.90;;;;;;5051899;28;20021;-69
2022/11/12 08:59:06;;;;;;;;;;;8.00;99.90;;;;;;5050713;28;19921;-69
2022/11/12 09:01:32;;;;;;;;;;;7.70;99.90;;;;;;5035916;28;19928;-69
2022/11/12 09:04:00;;;;;;;;;;;7.50;99.90;;;;;;5046767;28;19921;-69
2022/11/12 09:06:26;;;;;;;;;;;7.40;99.90;;;;;;5051437;28;19926;-69
2022/11/12 09:08:52;;;;;;;;;;;7.40;99.90;;;;;;5049346;28;19929;-68
2022/11/12 09:11:17;;;;;;;;;;;7.40;99.90;;;;;;5032936;28;19925;-69
2022/11/12 09:13:43;;;;;;;;;;;7.30;99.90;;;;;;5051288;28;19998;-69
2022/11/12 09:16:09;;;;;;;;;;;7.20;99.90;;;;;;5029587;28;19932;-69
2022/11/12 09:18:35;;;;;;;;;;;7.10;99.90;;;;;;5047625;28;19924;-69
2022/11/12 09:21:02;;;;;;;;;;;7.10;99.90;;;;;;5034324;28;20471;-69
2022/11/12 09:23:28;;;;;;;;;;;7.10;99.90;;;;;;5050572;28;19929;-68
2022/11/12 09:25:55;;;;;;;;;;;7.00;99.90;;;;;;5047135;28;20284;-69
2022/11/12 09:28:20;;;;;;;;;;;7.00;99.90;;;;;;5045379;28;20019;-69
2022/11/12 09:30:47;;;;;;;;;;;6.90;99.90;;;;;;5050475;28;20007;-69
2022/11/12 09:33:13;;;;;;;;;;;6.80;99.90;;;;;;5053163;28;19920;-69
2022/11/12 09:35:39;;;;;;;;;;;6.90;99.90;;;;;;5052015;28;19924;-69
2022/11/12 09:38:05;;;;;;;;;;;6.80;99.90;;;;;;5050063;28;19939;-69
2022/11/12 09:40:37;;;;;;;;;;;6.80;99.90;;;;;;5052382;28;19968;-69
2022/11/12 09:43:17;;;;;;;;;;;6.80;99.90;;;;;;5050674;28;19921;-69
2022/11/12 09:45:43;;;;;;;;;;;6.80;99.90;;;;;;5048655;28;19964;-68
2022/11/12 09:48:10;;;;;;;;;;;6.80;99.90;;;;;;5049963;28;20377;-69
2022/11/12 09:50:38;;;;;;;;;;;6.80;99.90;;;;;;5050742;28;19927;-69
2022/11/12 09:53:11;;;;;;;;;;;6.90;99.90;;;;;;5032188;28;19925;-69
2022/11/12 09:55:39;;;;;;;;;;;6.80;99.90;;;;;;5028475;28;19936;-69
2022/11/12 09:58:09;;;;;;;;;;;6.80;99.90;;;;;;5044376;28;20271;-69
2022/11/12 10:00:36;;;;;;;;;;;6.90;99.90;;;;;;5040685;28;20433;-69
2022/11/12 10:03:27;;;;;;;;;;;6.90;99.90;;;;;;5046668;28;19925;-69
2022/11/12 10:05:59;;;;;;;;;;;7.00;99.90;;;;;;5026441;28;19948;-69
2022/11/12 10:08:47;;;;;;;;;;;7.10;99.90;;;;;;5048932;28;20294;-69
2022/11/12 10:11:21;;;;;;;;;;;7.10;99.90;;;;;;5046194;28;20394;-69
2022/11/12 10:13:56;;;;;;;;;;;7.20;99.90;;;;;;5044440;28;20432;-69
2022/11/12 10:16:42;;;;;;;;;;;7.20;99.90;;;;;;5043669;28;19929;-69
2022/11/12 10:19:08;;;;;;;;;;;7.30;99.90;;;;;;5046006;28;20050;-69
2022/11/12 10:21:39;;;;;;;;;;;7.30;99.90;;;;;;5041621;28;20004;-69
2022/11/12 10:24:07;;;;;;;;;;;7.40;99.90;;;;;;5043292;28;19925;-69
2022/11/12 10:26:33;;;;;;;;;;;7.50;99.90;;;;;;5045281;28;20294;-69
2022/11/12 10:29:18;;;;;;;;;;;7.60;99.90;;;;;;5045898;28;20366;-69
2022/11/12 10:31:43;;;;;;;;;;;7.60;99.90;;;;;;5050013;28;20282;-69
2022/11/12 10:34:12;;;;;;;;;;;7.80;99.90;;;;;;5050693;28;19927;-70
2022/11/12 10:36:39;;;;;;;;;;;7.90;99.90;;;;;;5046079;28;20547;-69
2022/11/12 10:39:09;;;;;;;;;;;7.90;99.90;;;;;;5050073;28;20388;-69
2022/11/12 10:41:38;;;;;;;;;;;7.90;99.90;;;;;;5050212;28;19982;-69
2022/11/12 10:44:04;;;;;;;;;;;8.00;99.90;;;;;;5049637;28;20007;-69
2022/11/12 10:46:32;;;;;;;;;;;8.00;99.90;;;;;;5048728;28;19936;-69
2022/11/12 10:48:59;;;;;;;;;;;8.10;99.90;;;;;;5050614;28;20024;-69
2022/11/12 10:51:27;;;;;;;;;;;8.10;99.90;;;;;;5051872;28;19943;-68
2022/11/12 10:53:57;;;;;;;;;;;8.20;99.90;;;;;;5047608;28;19927;-67
2022/11/12 10:56:27;;;;;;;;;;;8.30;99.90;;;;;;5048822;28;20038;-67
2022/11/12 10:59:11;;;;;;;;;;;8.40;99.90;;;;;;5047876;28;19943;-68
2022/11/12 11:01:40;;;;;;;;;;;8.60;99.90;;;;;;5051415;28;19924;-67
2022/11/12 11:04:15;;;;;;;;;;;8.60;99.90;;;;;;5049961;28;19955;-68
2022/11/12 11:06:43;;;;;;;;;;;8.70;99.90;;;;;;5046159;28;19921;-67
2022/11/12 11:09:12;;;;;;;;;;;8.90;99.90;;;;;;5028467;28;20007;-68
2022/11/12 11:11:47;;;;;;;;;;;9.00;99.90;;;;;;5048599;28;19921;-67
2022/11/12 11:14:22;;;;;;;;;;;9.10;99.90;;;;;;5051141;28;20347;-68
2022/11/12 11:16:52;;;;;;;;;;;9.20;99.90;;;;;;5047121;28;19931;-68
2022/11/12 11:19:18;;;;;;;;;;;9.30;99.90;;;;;;5048210;28;19920;-68
2022/11/12 11:21:44;;;;;;;;;;;9.30;99.90;;;;;;5050709;28;19930;-68
2022/11/12 11:24:12;;;;;;;;;;;9.40;99.90;;;;;;5048179;28;19943;-68
2022/11/12 11:26:37;;;;;;;;;;;9.50;99.90;;;;;;5043569;28;20374;-68
2022/11/12 11:29:12;;;;;;;;;;;9.60;99.90;;;;;;5039189;28;19925;-68
2022/11/12 11:31:42;;;;;;;;;;;9.70;99.90;;;;;;5038827;28;19994;-68
2022/11/12 11:34:17;;;;;;;;;;;9.80;99.90;;;;;;5040851;28;20408;-68
2022/11/12 11:36:49;;;;;;;;;;;9.90;99.90;;;;;;5024855;28;20019;-68
2022/11/12 11:39:27;;;;;;;;;;;9.90;99.90;;;;;;5041851;28;20051;-68
2022/11/12 11:42:03;;;;;;;;;;;10.00;99.90;;;;;;5042074;28;19975;-68
2022/11/12 11:44:36;;;;;;;;;;;10.10;99.90;;;;;;5042734;28;19920;-68
2022/11/12 11:47:21;;;;;;;;;;;10.20;99.90;;;;;;5040381;28;19924;-69
2022/11/12 11:50:19;;;;;;;;;;;10.40;99.90;;;;;;5042582;28;19929;-68
2022/11/12 11:52:57;;;;;;;;;;;10.40;99.90;;;;;;4999096;28;19927;-68
2022/11/12 11:55:42;;;;;;;;;;;10.60;99.90;;;;;;5041496;28;19967;-68
2022/11/12 11:58:26;;;;;;;;;;;10.70;99.90;;;;;;5041646;28;19982;-68
2022/11/12 12:00:54;;;;;;;;;;;10.80;99.90;;;;;;5041926;28;19928;-69
2022/11/12 12:03:25;;;;;;;;;;;11.00;99.90;;;;;;5043572;28;19921;-69
2022/11/12 12:05:54;;;;;;;;;;;11.20;99.90;;;;;;5035191;28;19924;-69
2022/11/12 12:08:38;;;;;;;;;;;11.40;99.90;;;;;;5042226;28;20187;-68
2022/11/12 12:11:13;;;;;;;;;;;11.60;99.90;;;;;;5024580;28;20274;-69
2022/11/12 12:13:38;;;;;;;;;;;11.80;99.90;;;;;;5056853;28;20325;-69
2022/11/12 12:16:14;;;;;;;;;;;11.90;99.90;;;;;;5041484;28;19933;-68
2022/11/12 12:18:49;;;;;;;;;;;12.00;99.90;;;;;;5041194;28;20305;-70
2022/11/12 12:21:15;;;;;;;;;;;12.10;99.90;;;;;;5041206;28;19933;-68
2022/11/12 12:23:47;;;;;;;;;;;12.10;99.90;;;;;;5038496;28;20415;-70
2022/11/12 12:26:25;;;;;;;;;;;12.20;99.90;;;;;;5039240;28;19924;-70
2022/11/12 12:28:50;;;;;;;;;;;12.20;99.90;;;;;;5045084;28;20294;-69
2022/11/12 12:31:19;;;;;;;;;;;12.30;99.90;;;;;;5044505;28;19940;-71
2022/11/12 12:33:53;;;;;;;;;;;12.40;99.90;;;;;;5043493;28;19981;-71
2022/11/12 12:36:33;;;;;;;;;;;12.50;99.90;;;;;;5045855;28;20313;-72
2022/11/12 12:39:08;;;;;;;;;;;12.60;99.90;;;;;;5045425;28;19960;-69
2022/11/12 12:41:41;;;;;;;;;;;12.80;99.90;;;;;;5044504;28;19928;-70
2022/11/12 12:44:08;;;;;;;;;;;12.90;99.90;;;;;;5045683;28;19964;-70
2022/11/12 12:46:53;;;;;;;;;;;13.00;99.90;;;;;;5043538;28;19974;-79
2022/11/12 12:49:31;;;;;;;;;;;13.10;99.90;;;;;;5045603;28;20011;-70
2022/11/12 12:51:57;;;;;;;;;;;13.20;99.90;;;;;;5044667;28;19927;-68
2022/11/12 12:54:53;;;;;;;;;;;13.20;99.90;;;;;;5043865;28;19929;-68
2022/11/12 12:57:31;;;;;;;;;;;13.40;99.90;;;;;;5026621;28;19925;-67
2022/11/12 13:00:15;;;;;;;;;;;13.40;99.90;;;;;;5043369;28;19937;-69
2022/11/12 13:02:41;;;;;;;;;;;13.50;99.90;;;;;;5045236;28;20404;-69
2022/11/12 13:05:21;;;;;;;;;;;13.50;99.90;;;;;;5045840;28;19959;-69
2022/11/12 13:07:47;;;;;;;;;;;13.40;99.90;;;;;;5044872;28;19974;-69
2022/11/12 13:10:32;;;;;;;;;;;13.50;99.90;;;;;;5046349;28;19921;-69
2022/11/12 13:13:03;;;;;;;;;;;13.50;99.90;;;;;;5050245;28;19924;-69
2022/11/12 13:15:40;;;;;;;;;;;13.50;99.90;;;;;;5049132;28;20222;-69
2022/11/12 13:18:07;;;;;;;;;;;13.50;99.90;;;;;;5048242;28;19975;-69
2022/11/12 13:20:35;;;;;;;;;;;13.50;99.90;;;;;;5045449;28;20031;-69
2022/11/12 13:23:00;;;;;;;;;;;13.40;99.90;;;;;;5046224;28;20381;-69
2022/11/12 13:25:28;;;;;;;;;;;13.40;99.90;;;;;;5043455;28;19951;-69
2022/11/12 13:27:53;;;;;;;;;;;13.30;99.90;;;;;;5038888;28;20015;-69
2022/11/12 13:30:19;;;;;;;;;;;13.30;99.90;;;;;;5044413;28;20513;-69
2022/11/12 13:32:45;;;;;;;;;;;13.30;99.90;;;;;;5044256;28;19928;-69
2022/11/12 13:35:10;;;;;;;;;;;13.30;99.90;;;;;;5044206;28;19929;-69
2022/11/12 13:37:51;;;;;;;;;;;13.30;99.90;;;;;;5045631;28;20366;-69
2022/11/12 13:40:23;;;;;;;;;;;13.30;99.90;;;;;;5045223;28;19920;-69
2022/11/12 13:42:49;;;;;;;;;;;13.40;99.90;;;;;;5044464;28;20301;-69
2022/11/12 13:45:15;;;;;;;;;;;13.40;99.90;;;;;;5043468;28;19920;-69
2022/11/12 13:47:41;;;;;;;;;;;13.40;99.90;;;;;;5045724;28;19928;-69
2022/11/12 13:50:08;;;;;;;;;;;13.40;99.90;;;;;;5025635;28;19920;-69
2022/11/12 13:52:34;;;;;;;;;;;13.30;99.90;;;;;;5040797;28;20360;-69
2022/11/12 13:55:11;;;;;;;;;;;13.30;99.90;;;;;;5045031;28;20000;-69
2022/11/12 13:57:37;;;;;;;;;;;13.20;99.90;;;;;;5036142;28;19967;-69
2022/11/12 14:00:15;;;;;;;;;;;13.10;99.90;;;;;;5044164;28;19928;-69
2022/11/12 14:02:42;;;;;;;;;;;13.10;99.90;;;;;;5042747;28;20404;-68
2022/11/12 14:05:13;;;;;;;;;;;13.00;99.90;;;;;;5040108;28;20312;-69
2022/11/12 14:07:57;;;;;;;;;;;12.90;99.90;;;;;;5039250;28;20401;-69
2022/11/12 14:10:35;;;;;;;;;;;12.90;99.90;;;;;;5050933;28;19928;-68
2022/11/12 14:13:03;;;;;;;;;;;12.80;99.90;;;;;;5049784;28;19925;-69
2022/11/12 14:15:51;;;;;;;;;;;12.80;99.90;;;;;;5051677;28;20947;-69
2022/11/12 14:18:25;;;;;;;;;;;12.70;99.90;;;;;;5047528;28;19925;-69
2022/11/12 14:20:51;;;;;;;;;;;12.60;99.90;;;;;;5041911;28;19929;-69
2022/11/12 14:23:18;;;;;;;;;;;12.50;99.90;;;;;;5050357;28;19925;-69
2022/11/12 14:25:50;;;;;;;;;;;12.40;99.90;;;;;;5050111;28;20066;-68
2022/11/12 14:28:25;;;;;;;;;;;12.40;99.90;;;;;;5048876;28;19928;-69
2022/11/12 14:30:50;;;;;;;;;;;12.30;99.90;;;;;;5051564;28;19921;-69
2022/11/12 14:33:17;;;;;;;;;;;12.20;99.90;;;;;;5050221;28;19920;-68
2022/11/12 14:35:42;;;;;;;;;;;12.10;99.90;;;;;;5048898;28;20509;-68
2022/11/12 14:38:08;;;;;;;;;;;12.10;99.90;;;;;;5050304;28;20011;-69
2022/11/12 14:40:40;;;;;;;;;;;12.00;99.90;;;;;;5049244;28;20433;-68
2022/11/12 14:43:16;;;;;;;;;;;11.90;99.90;;;;;;5051355;28;20035;-69
2022/11/12 14:45:46;;;;;;;;;;;11.90;99.90;;;;;;5046934;28;20374;-68
2022/11/12 14:48:12;;;;;;;;;;;11.80;99.90;;;;;;5033509;28;19925;-68
2022/11/12 14:50:37;;;;;;;;;;;11.70;99.90;;;;;;5046964;28;20598;-69
2022/11/12 14:53:06;;;;;;;;;;;11.70;99.90;;;;;;5049671;28;19921;-69